Time;durP1;ratioP1;P1;durP2;ratioP2;P2;SDS_P1;SDS_P2;PMS_P1;PMS_P2;Temp;Humidity;BMP_temperature;BMP_pressure;BME280_temperature;BME280_humidity;BME280_pressure;Samples;Min_cycle;Max_cycle;Signal;HPM_P1;HPM_P2
2023/03/03 00:00:23;;;;;;;12.33;2.87;;;17.60;62.30;;;;;;10489017;28;20064;-25
2023/03/03 00:05:25;;;;;;;9.75;2.65;;;17.50;62.30;;;;;;10483994;28;20503;-24
2023/03/03 00:10:28;;;;;;;7.72;3.10;;;17.60;63.10;;;;;;10478571;28;20132;-23
2023/03/03 00:15:31;;;;;;;11.40;2.83;;;17.50;62.40;;;;;;10479821;28;20084;-26
2023/03/03 00:20:37;;;;;;;8.77;3.47;;;17.50;62.10;;;;;;10481377;28;20431;-24
2023/03/03 00:25:43;;;;;;;6.80;2.60;;;17.50;62.40;;;;;;10469122;28;20041;-22
2023/03/03 00:30:46;;;;;;;13.48;2.67;;;17.40;61.90;;;;;;10479964;28;20094;-24
2023/03/03 00:35:48;;;;;;;11.90;3.05;;;17.40;62.40;;;;;;10474283;28;20094;-23
2023/03/03 00:40:50;;;;;;;10.05;2.20;;;17.30;62.30;;;;;;10485981;28;20044;-24
2023/03/03 00:45:54;;;;;;;5.78;2.75;;;17.30;63.00;;;;;;10480215;28;20484;-24
2023/03/03 00:50:58;;;;;;;4.43;2.17;;;17.30;62.60;;;;;;10481615;28;20071;-25
2023/03/03 00:56:00;;;;;;;7.57;2.60;;;17.20;62.20;;;;;;10486019;28;20083;-24
2023/03/03 01:01:03;;;;;;;11.17;2.13;;;17.20;62.30;;;;;;10476913;28;20072;-25
2023/03/03 01:06:05;;;;;;;6.38;2.33;;;17.20;62.80;;;;;;10482560;28;20525;-24
2023/03/03 01:11:12;;;;;;;4.95;3.03;;;17.20;62.80;;;;;;10484952;28;20549;-25
2023/03/03 01:16:15;;;;;;;11.13;3.25;;;17.20;62.70;;;;;;10487120;28;20118;-24
2023/03/03 01:21:17;;;;;;;6.13;2.42;;;17.10;62.40;;;;;;10486099;28;20635;-23
2023/03/03 01:26:19;;;;;;;5.70;1.98;;;17.10;62.40;;;;;;10482674;28;20136;-22
2023/03/03 01:31:23;;;;;;;2.67;1.50;;;17.10;62.70;;;;;;10484779;28;20610;-24
2023/03/03 01:36:25;;;;;;;7.43;1.67;;;17.00;62.90;;;;;;10473597;28;20041;-23
2023/03/03 01:41:29;;;;;;;6.05;2.38;;;17.00;62.70;;;;;;10477115;28;20121;-24
2023/03/03 01:46:48;;;;;;;5.07;2.78;;;17.00;62.60;;;;;;10484003;28;20056;-23
2023/03/03 01:51:53;;;;;;;5.05;1.77;;;17.00;62.50;;;;;;10476708;28;20040;-24
2023/03/03 01:57:00;;;;;;;6.80;2.72;;;16.90;62.60;;;;;;10478482;28;20131;-24
2023/03/03 02:02:04;;;;;;;6.50;1.90;;;16.80;62.60;;;;;;10478466;28;20500;-24
2023/03/03 02:07:09;;;;;;;4.60;1.80;;;16.80;62.80;;;;;;10465123;28;20132;-24
2023/03/03 02:12:13;;;;;;;3.85;1.60;;;16.60;62.90;;;;;;10472269;28;20114;-25
2023/03/03 02:17:16;;;;;;;7.40;1.92;;;16.70;63.30;;;;;;10467084;28;20083;-24
2023/03/03 02:22:23;;;;;;;4.07;1.42;;;16.80;63.50;;;;;;10484043;28;20145;-24
2023/03/03 02:27:28;;;;;;;6.07;1.65;;;16.70;63.10;;;;;;10480800;28;20033;-24
2023/03/03 02:32:30;;;;;;;3.53;1.60;;;16.50;63.00;;;;;;10480152;28;20048;-24
2023/03/03 02:37:32;;;;;;;3.67;1.60;;;16.50;63.10;;;;;;10476901;28;20087;-26
2023/03/03 02:42:35;;;;;;;3.38;1.77;;;16.50;63.70;;;;;;10479757;28;20576;-24
2023/03/03 02:47:37;;;;;;;2.20;1.45;;;16.50;63.90;;;;;;10476586;28;20067;-24
2023/03/03 02:52:38;;;;;;;3.03;1.23;;;16.40;63.80;;;;;;10470524;28;20080;-23
2023/03/03 02:57:42;;;;;;;3.17;1.80;;;16.40;63.80;;;;;;10479179;28;20080;-24
2023/03/03 03:02:44;;;;;;;2.42;1.38;;;16.40;63.30;;;;;;10486403;28;20102;-24
2023/03/03 03:07:46;;;;;;;4.25;1.48;;;16.30;63.60;;;;;;10484887;28;20050;-24
2023/03/03 03:12:49;;;;;;;3.30;1.20;;;16.40;63.30;;;;;;10474619;28;20149;-23
2023/03/03 03:17:51;;;;;;;6.57;1.25;;;16.40;63.60;;;;;;10478640;28;20087;-23
2023/03/03 03:22:53;;;;;;;2.93;1.37;;;16.30;63.40;;;;;;10466678;28;20544;-23
2023/03/03 03:27:56;;;;;;;5.20;1.20;;;16.30;63.70;;;;;;10480664;28;21081;-33
2023/03/03 03:32:58;;;;;;;3.35;1.15;;;16.30;63.30;;;;;;10484140;28;20124;-24
2023/03/03 03:37:59;;;;;;;2.60;1.47;;;16.30;63.60;;;;;;10482660;28;20135;-23
2023/03/03 03:43:03;;;;;;;3.57;0.87;;;16.20;64.10;;;;;;10490914;28;20060;-23
2023/03/03 03:48:05;;;;;;;3.30;1.23;;;16.20;63.90;;;;;;10487637;28;20470;-24
2023/03/03 03:53:07;;;;;;;2.40;1.35;;;16.10;63.70;;;;;;10487722;28;20043;-23
2023/03/03 03:58:12;;;;;;;2.20;1.20;;;16.10;63.50;;;;;;10485322;28;20183;-25
2023/03/03 04:03:15;;;;;;;1.67;0.90;;;16.00;64.20;;;;;;10488610;28;20404;-25
2023/03/03 04:08:16;;;;;;;1.05;0.70;;;16.00;64.30;;;;;;10491537;28;20036;-24
2023/03/03 04:13:20;;;;;;;1.73;0.90;;;15.90;63.70;;;;;;10479748;28;20435;-21
2023/03/03 04:18:22;;;;;;;0.75;0.73;;;16.20;63.50;;;;;;10488142;28;20097;-24
2023/03/03 04:23:24;;;;;;;1.23;0.60;;;16.60;61.90;;;;;;10488800;28;20041;-24
2023/03/03 04:28:27;;;;;;;1.43;1.00;;;16.80;61.20;;;;;;10488508;28;20123;-25
2023/03/03 04:33:29;;;;;;;1.70;0.93;;;17.00;60.30;;;;;;10490980;28;20558;-23
2023/03/03 04:38:31;;;;;;;2.50;0.83;;;17.10;60.20;;;;;;10490151;28;20384;-23
2023/03/03 04:43:34;;;;;;;0.95;0.55;;;17.20;60.10;;;;;;10483511;28;20891;-25
2023/03/03 04:48:37;;;;;;;2.00;0.80;;;17.30;59.80;;;;;;10485964;28;20062;-24
2023/03/03 04:53:39;;;;;;;0.82;0.57;;;17.30;59.80;;;;;;10485385;28;20436;-24
2023/03/03 04:58:42;;;;;;;0.77;0.43;;;17.40;59.60;;;;;;10488727;28;20080;-24
2023/03/03 05:03:44;;;;;;;2.53;0.43;;;17.40;59.60;;;;;;10480972;28;20079;-24
2023/03/03 05:08:46;;;;;;;1.58;1.00;;;17.40;59.80;;;;;;10490704;28;20040;-23
2023/03/03 05:13:49;;;;;;;1.55;0.55;;;17.40;60.30;;;;;;10484891;28;20068;-24
2023/03/03 05:18:51;;;;;;;2.15;0.50;;;17.30;60.00;;;;;;10483054;28;20052;-26
2023/03/03 05:23:53;;;;;;;0.67;0.57;;;17.30;60.10;;;;;;10481851;28;20037;-25
2023/03/03 05:28:56;;;;;;;1.55;0.80;;;17.30;60.20;;;;;;10485079;28;20090;-24
2023/03/03 05:33:58;;;;;;;1.50;0.70;;;17.30;60.20;;;;;;10472448;28;20067;-24
2023/03/03 05:39:00;;;;;;;1.17;0.53;;;17.20;60.50;;;;;;10479572;28;20187;-22
2023/03/03 05:44:03;;;;;;;1.27;0.50;;;17.30;60.40;;;;;;10482295;28;20059;-23
2023/03/03 05:49:05;;;;;;;1.98;0.60;;;17.20;60.30;;;;;;10478557;28;20514;-22
2023/03/03 05:54:07;;;;;;;1.60;0.70;;;17.20;60.70;;;;;;10488785;28;20054;-23
2023/03/03 05:59:10;;;;;;;3.70;0.80;;;17.20;60.60;;;;;;10483903;28;20068;-23
2023/03/03 06:04:12;;;;;;;0.85;0.55;;;17.20;60.40;;;;;;10483463;28;20032;-23
2023/03/03 06:09:14;;;;;;;2.45;0.70;;;17.20;60.50;;;;;;10486622;28;20045;-23
2023/03/03 06:14:17;;;;;;;1.23;0.50;;;17.10;61.00;;;;;;10482950;28;20476;-24
2023/03/03 06:19:19;;;;;;;1.77;0.75;;;17.00;61.20;;;;;;10475129;28;20091;-25
2023/03/03 06:24:24;;;;;;;3.53;0.70;;;17.00;61.50;;;;;;10471719;28;20048;-26
2023/03/03 06:29:28;;;;;;;1.33;0.57;;;17.00;61.10;;;;;;10481674;28;20094;-25
2023/03/03 06:34:30;;;;;;;2.60;0.65;;;16.80;61.30;;;;;;10479893;28;20045;-24
2023/03/03 06:39:32;;;;;;;0.83;0.77;;;16.80;62.10;;;;;;10478913;28;20068;-24
2023/03/03 06:44:35;;;;;;;2.47;0.73;;;16.80;61.80;;;;;;10481155;28;20048;-25
2023/03/03 06:49:37;;;;;;;0.95;0.60;;;16.80;61.60;;;;;;10470377;28;20135;-23
2023/03/03 06:54:39;;;;;;;3.00;0.93;;;16.90;61.30;;;;;;10471254;28;20123;-25
2023/03/03 06:59:42;;;;;;;2.17;0.70;;;16.70;61.70;;;;;;10463798;28;20068;-24
2023/03/03 07:15:17;;;;;;;5.75;1.10;;;16.80;60.30;;;;;;10509422;27;1340922;-24
2023/03/03 07:20:22;;;;;;;12.98;1.73;;;16.80;60.90;;;;;;10562133;28;20043;-23
2023/03/03 07:25:30;;;;;;;12.07;2.10;;;16.80;61.40;;;;;;10549445;28;20097;-24
2023/03/03 07:30:33;;;;;;;14.60;3.40;;;16.70;61.50;;;;;;10551557;28;20035;-25
2023/03/03 07:35:40;;;;;;;48.42;7.03;;;16.40;62.10;;;;;;10562407;28;20141;-27
2023/03/03 07:40:47;;;;;;;100.20;12.55;;;16.40;62.30;;;;;;10555159;28;20038;-25
2023/03/03 07:45:51;;;;;;;172.18;22.83;;;16.40;62.50;;;;;;10551430;28;20084;-27
2023/03/03 07:50:53;;;;;;;218.57;26.20;;;16.40;62.30;;;;;;10555847;28;20478;-24
2023/03/03 07:55:55;;;;;;;403.70;47.43;;;16.30;62.60;;;;;;10550252;28;20068;-25
2023/03/03 08:01:12;;;;;;;;;;;16.30;62.90;;;;;;10543502;28;20537;-24
2023/03/03 08:06:37;;;;;;;645.67;82.75;;;16.10;63.50;;;;;;10543234;28;19938;-22
2023/03/03 08:11:49;;;;;;;644.10;87.80;;;16.10;63.90;;;;;;10558612;28;20079;-23
2023/03/03 08:16:51;;;;;;;719.83;99.80;;;16.10;63.70;;;;;;10556143;28;20131;-24
2023/03/03 08:22:00;;;;;;;624.00;86.07;;;16.00;64.10;;;;;;10553645;28;20072;-25
2023/03/03 08:27:02;;;;;;;558.78;75.68;;;16.00;64.00;;;;;;10508493;28;20487;-23
2023/03/03 08:32:04;;;;;;;503.30;65.93;;;15.90;64.30;;;;;;10511670;28;20045;-23
2023/03/03 08:37:08;;;;;;;489.20;65.78;;;15.90;64.20;;;;;;10518849;28;20064;-23
2023/03/03 08:42:10;;;;;;;506.13;64.88;;;15.90;64.40;;;;;;10540537;28;20083;-24
2023/03/03 08:47:12;;;;;;;823.93;110.00;;;16.00;64.20;;;;;;10522663;28;20040;-24
2023/03/03 08:52:15;;;;;;;1211.87;165.60;;;15.90;64.40;;;;;;10522657;28;20050;-24
2023/03/03 08:57:17;;;;;;;1587.68;223.77;;;15.80;64.60;;;;;;10520101;28;20043;-24
2023/03/03 09:02:19;;;;;;;1711.95;248.50;;;15.80;64.60;;;;;;10527014;28;20172;-24
2023/03/03 09:07:22;;;;;;;1649.67;242.40;;;15.80;64.70;;;;;;10522273;28;20040;-24
2023/03/03 09:12:29;;;;;;;1541.43;217.02;;;15.80;64.80;;;;;;10524422;28;20056;-28
2023/03/03 09:17:34;;;;;;;1496.90;222.15;;;15.90;64.40;;;;;;10528173;28;20138;-23
2023/03/03 09:22:38;;;;;;;1338.97;192.13;;;15.90;64.20;;;;;;10524263;28;20044;-24
2023/03/03 09:27:40;;;;;;;1185.18;175.63;;;15.90;65.20;;;;;;10526959;28;20051;-24
2023/03/03 09:32:42;;;;;;;1064.78;149.00;;;15.90;65.60;;;;;;10532419;28;20072;-25
2023/03/03 09:37:48;;;;;;;898.20;126.38;;;15.80;66.30;;;;;;10525536;28;20535;-25
2023/03/03 09:43:02;;;;;;;728.25;103.72;;;15.80;66.70;;;;;;10529367;28;20449;-24
2023/03/03 09:48:42;;;;;;;608.05;82.38;;;16.00;65.70;;;;;;10518345;28;20100;-24
2023/03/03 09:54:01;;;;;;;539.95;73.82;;;16.10;66.40;;;;;;10525227;28;20402;-28
2023/03/03 09:59:19;;;;;;;519.15;67.38;;;16.00;66.00;;;;;;10522967;28;20456;-24
2023/03/03 10:04:43;;;;;;;482.77;60.28;;;16.00;66.50;;;;;;10532441;28;20059;-26
2023/03/03 10:10:17;;;;;;;391.13;50.03;;;16.10;65.70;;;;;;10513564;28;20127;-23
2023/03/03 10:15:32;;;;;;;376.65;48.20;;;16.20;65.00;;;;;;10520719;28;20079;-23
2023/03/03 10:20:46;;;;;;;324.63;41.42;;;16.20;64.80;;;;;;10525553;28;20047;-24
2023/03/03 10:25:57;;;;;;;233.15;34.88;;;16.50;63.40;;;;;;10523059;28;20457;-22
2023/03/03 10:31:09;;;;;;;230.95;34.58;;;16.60;63.50;;;;;;10525699;28;20076;-23
2023/03/03 10:36:32;;;;;;;286.60;40.05;;;16.60;62.80;;;;;;10521450;28;20044;-23
2023/03/03 10:41:47;;;;;;;225.30;30.85;;;16.50;63.40;;;;;;10520306;28;20083;-25
2023/03/03 10:46:59;;;;;;;259.02;33.08;;;16.40;63.60;;;;;;10518156;28;20059;-24
2023/03/03 10:52:07;;;;;;;;;;;16.60;62.80;;;;;;10514656;28;20138;-26
2023/03/03 10:57:18;;;;;;;189.70;25.55;;;16.60;62.50;;;;;;10516834;28;19929;-23
2023/03/03 11:02:26;;;;;;;165.35;25.63;;;16.60;63.10;;;;;;10519345;28;20036;-23
2023/03/03 11:07:35;;;;;;;211.73;25.10;;;16.90;61.70;;;;;;10523212;28;20044;-24
2023/03/03 11:12:52;;;;;;;143.23;20.20;;;16.70;62.30;;;;;;10513896;28;20075;-24
2023/03/03 11:18:08;;;;;;;151.95;24.38;;;16.60;63.10;;;;;;10529161;28;20036;-23
2023/03/03 11:23:38;;;;;;;127.75;21.98;;;16.60;63.00;;;;;;10527716;28;20068;-25
2023/03/03 11:28:56;;;;;;;127.38;19.30;;;16.90;61.00;;;;;;10511889;28;20426;-24
2023/03/03 11:34:06;;;;;;;109.88;18.75;;;16.90;61.50;;;;;;10516825;28;20452;-24
2023/03/03 11:39:10;;;;;;;109.05;18.45;;;17.00;60.80;;;;;;10516649;28;20042;-24
2023/03/03 11:44:21;;;;;;;115.85;17.33;;;17.00;61.00;;;;;;10505970;28;20051;-24
2023/03/03 11:49:28;;;;;;;102.90;20.33;;;16.60;62.80;;;;;;10527759;28;20396;-24
2023/03/03 11:54:35;;;;;;;104.80;15.80;;;16.50;63.00;;;;;;10519343;28;20711;-24
2023/03/03 11:59:50;;;;;;;146.13;18.88;;;16.40;61.90;;;;;;10533877;28;20036;-24
2023/03/03 12:04:55;;;;;;;234.65;26.35;;;16.20;65.00;;;;;;10530912;28;20105;-24
2023/03/03 12:10:08;;;;;;;270.52;29.40;;;16.30;64.30;;;;;;10530615;28;20048;-24
2023/03/03 12:15:22;;;;;;;355.63;34.03;;;16.00;65.60;;;;;;10531587;28;20530;-23
2023/03/03 12:20:31;;;;;;;320.25;32.72;;;15.60;62.30;;;;;;10523253;28;20075;-24
2023/03/03 12:25:37;;;;;;;293.17;34.17;;;16.30;65.20;;;;;;10533523;28;20036;-24
2023/03/03 12:31:05;;;;;;;269.30;36.45;;;16.10;65.20;;;;;;10519446;28;20558;-24
2023/03/03 12:36:18;;;;;;;251.70;31.52;;;16.20;64.80;;;;;;10528816;28;20052;-23
2023/03/03 12:41:25;;;;;;;280.20;31.15;;;16.20;66.60;;;;;;10528883;28;20094;-24
2023/03/03 12:46:40;;;;;;;180.68;21.90;;;16.50;65.90;;;;;;10518441;28;20079;-24
2023/03/03 12:52:02;;;;;;;123.70;17.80;;;16.20;65.00;;;;;;10526016;28;20130;-24
2023/03/03 12:57:16;;;;;;;205.52;24.77;;;16.10;67.00;;;;;;10525276;28;20055;-24
2023/03/03 13:02:36;;;;;;;170.27;21.20;;;16.40;66.70;;;;;;10513556;28;20506;-27
2023/03/03 13:07:44;;;;;;;141.15;18.23;;;16.60;65.60;;;;;;10521421;28;20146;-25
2023/03/03 13:12:54;;;;;;;173.18;20.55;;;16.70;65.20;;;;;;10517183;28;20098;-23
2023/03/03 13:18:11;;;;;;;86.53;11.70;;;16.80;63.20;;;;;;10518720;28;20438;-23
2023/03/03 13:23:25;;;;;;;152.25;18.45;;;16.20;66.00;;;;;;10507385;28;20064;-23
2023/03/03 13:28:34;;;;;;;123.47;14.68;;;16.70;66.10;;;;;;10510939;28;20064;-23
2023/03/03 13:33:37;;;;;;;175.55;20.27;;;16.90;62.50;;;;;;10501073;28;20153;-24
2023/03/03 13:38:42;;;;;;;158.93;19.33;;;17.20;64.10;;;;;;10512457;28;20052;-23
2023/03/03 13:43:48;;;;;;;210.93;24.90;;;17.20;64.90;;;;;;10503713;28;20785;-23
2023/03/03 13:49:08;;;;;;;261.70;31.30;;;17.70;63.10;;;;;;10506679;28;20052;-23
2023/03/03 13:54:21;;;;;;;329.88;38.28;;;17.60;65.30;;;;;;10519944;28;20051;-24
2023/03/03 13:59:30;;;;;;;240.20;23.95;;;17.70;64.80;;;;;;10527249;28;20119;-24
2023/03/03 14:04:47;;;;;;;263.45;30.73;;;17.30;59.20;;;;;;10526866;28;20499;-22
2023/03/03 14:09:59;;;;;;;264.20;34.08;;;16.90;68.10;;;;;;10519746;28;20139;-22
2023/03/03 14:15:08;;;;;;;192.17;24.37;;;17.40;66.00;;;;;;10521488;28;20102;-22
2023/03/03 14:20:19;;;;;;;238.85;25.77;;;17.00;59.50;;;;;;10528539;28;20553;-24
2023/03/03 14:25:22;;;;;;;120.70;17.30;;;16.10;71.90;;;;;;10505497;28;20079;-24
2023/03/03 14:30:32;;;;;;;248.43;29.20;;;15.80;63.90;;;;;;10522046;28;20098;-23
2023/03/03 14:35:38;;;;;;;169.93;19.70;;;15.70;78.90;;;;;;10515803;28;20091;-23
2023/03/03 14:40:44;;;;;;;210.90;28.65;;;15.00;78.90;;;;;;10518637;28;20123;-24
2023/03/03 14:45:46;;;;;;;82.50;13.50;;;15.80;75.40;;;;;;10528425;28;20047;-24
2023/03/03 14:50:51;;;;;;;115.47;16.55;;;15.60;75.60;;;;;;10526996;28;20085;-23
2023/03/03 14:55:54;;;;;;;174.93;23.92;;;15.30;67.50;;;;;;10518470;28;20075;-23
2023/03/03 15:01:20;;;;;;;141.43;20.15;;;15.70;71.00;;;;;;10522041;28;20200;-23
2023/03/03 15:06:36;;;;;;;141.30;19.80;;;15.30;82.60;;;;;;10514719;28;20040;-23
2023/03/03 15:11:38;;;;;;;134.35;17.92;;;15.70;79.80;;;;;;10520161;28;20064;-23
2023/03/03 15:16:43;;;;;;;74.40;12.25;;;16.40;75.90;;;;;;10511411;28;20047;-24
2023/03/03 15:21:57;;;;;;;81.85;13.48;;;16.30;69.70;;;;;;10520949;28;20051;-23
2023/03/03 15:27:04;;;;;;;124.53;17.95;;;15.30;79.20;;;;;;10521377;28;20146;-23
2023/03/03 15:32:12;;;;;;;88.60;15.68;;;15.60;78.90;;;;;;10511689;28;20456;-25
2023/03/03 15:37:31;;;;;;;93.40;17.33;;;15.00;84.30;;;;;;10521566;28;20052;-23
2023/03/03 15:42:39;;;;;;;84.70;15.85;;;16.60;74.00;;;;;;10534393;28;20468;-23
2023/03/03 15:48:02;;;;;;;84.25;14.40;;;17.30;68.80;;;;;;10531954;28;20135;-23
2023/03/03 15:53:19;;;;;;;22.05;3.97;;;17.00;69.20;;;;;;10527131;28;20143;-23
2023/03/03 15:58:51;;;;;;;62.83;10.90;;;15.60;76.60;;;;;;10531717;28;20059;-23
2023/03/03 16:03:57;;;;;;;71.07;14.20;;;15.60;77.30;;;;;;10516980;28;20048;-23
2023/03/03 16:09:06;;;;;;;50.72;10.82;;;16.30;75.80;;;;;;10519302;28;20147;-24
2023/03/03 16:14:30;;;;;;;43.20;7.53;;;17.80;64.80;;;;;;10516152;28;20146;-26
2023/03/03 16:19:42;;;;;;;60.28;11.07;;;17.30;65.70;;;;;;10529600;28;20075;-24
2023/03/03 16:25:00;;;;;;;57.25;11.13;;;17.90;63.60;;;;;;10518086;28;20450;-24
2023/03/03 16:30:16;;;;;;;79.75;13.25;;;17.90;63.60;;;;;;10528557;28;20782;-24
2023/03/03 16:35:22;;;;;;;59.63;9.88;;;18.10;63.10;;;;;;10523590;28;20052;-24
2023/03/03 16:40:30;;;;;;;45.28;8.00;;;18.30;61.10;;;;;;10533286;28;20085;-24
2023/03/03 16:45:35;;;;;;;50.88;8.40;;;18.40;61.10;;;;;;10530188;28;20048;-24
2023/03/03 16:50:44;;;;;;;34.47;6.15;;;18.50;60.30;;;;;;10531919;28;20093;-23
2023/03/03 16:55:56;;;;;;;29.75;6.78;;;18.50;60.90;;;;;;10514029;28;20105;-23
2023/03/03 17:01:08;;;;;;;17.95;5.15;;;18.40;61.60;;;;;;10526719;28;20048;-24
2023/03/03 17:06:18;;;;;;;41.83;7.07;;;18.70;60.00;;;;;;10521233;28;20440;-22
2023/03/03 17:11:30;;;;;;;60.15;8.32;;;18.60;60.70;;;;;;10525107;28;20592;-24
2023/03/03 17:16:41;;;;;;;49.37;6.80;;;18.50;61.00;;;;;;10516575;28;20502;-25
2023/03/03 17:21:58;;;;;;;39.60;6.38;;;18.20;61.50;;;;;;10517779;28;20842;-24
2023/03/03 17:27:12;;;;;;;50.78;9.48;;;18.40;61.40;;;;;;10519137;28;20455;-24
2023/03/03 17:32:29;;;;;;;41.63;9.65;;;18.10;64.00;;;;;;10529267;28;20126;-23
2023/03/03 17:37:37;;;;;;;28.58;8.38;;;17.20;69.40;;;;;;10526540;28;20491;-24
2023/03/03 17:42:46;;;;;;;38.40;10.73;;;15.60;76.20;;;;;;10520125;28;20055;-24
2023/03/03 17:48:08;;;;;;;29.83;8.00;;;15.70;63.60;;;;;;10525689;28;20063;-24
2023/03/03 17:53:36;;;;;;;34.55;7.38;;;16.50;78.40;;;;;;10517510;28;20048;-23
2023/03/03 17:59:09;;;;;;;27.25;7.25;;;17.10;71.20;;;;;;10524155;28;20040;-23
2023/03/03 18:04:26;;;;;;;24.65;5.50;;;18.00;69.70;;;;;;10501957;28;20132;-25
2023/03/03 18:09:51;;;;;;;20.88;5.65;;;18.30;68.00;;;;;;10521699;28;20426;-23
2023/03/03 18:15:09;;;;;;;27.80;6.28;;;18.20;68.20;;;;;;10507374;28;20491;-24
2023/03/03 18:20:37;;;;;;;24.52;6.05;;;16.30;66.40;;;;;;10516535;28;20036;-30
2023/03/03 18:25:55;;;;;;;33.80;7.97;;;16.40;73.00;;;;;;10519127;28;20040;-23
2023/03/03 18:31:01;;;;;;;28.67;8.70;;;17.00;77.30;;;;;;10526823;28;20082;-23
2023/03/03 18:36:14;;;;;;;26.38;8.15;;;17.20;71.20;;;;;;10527876;28;20048;-23
2023/03/03 18:41:23;;;;;;;30.15;7.13;;;16.50;80.30;;;;;;10529157;28;20072;-24
2023/03/03 18:46:49;;;;;;;31.50;9.05;;;17.30;74.50;;;;;;10515081;28;20065;-24
2023/03/03 18:52:12;;;;;;;27.70;7.72;;;16.60;75.60;;;;;;10517115;28;20097;-23
2023/03/03 18:57:17;;;;;;;28.05;8.65;;;16.40;79.60;;;;;;10519483;28;20091;-24
2023/03/03 19:02:29;;;;;;;25.23;8.27;;;17.50;72.10;;;;;;10515690;28;20060;-24
2023/03/03 19:07:48;;;;;;;25.40;8.35;;;17.50;69.30;;;;;;10511346;28;20475;-27
2023/03/03 19:12:52;;;;;;;20.30;6.68;;;17.50;71.40;;;;;;10517006;28;20098;-23
2023/03/03 19:17:57;;;;;;;19.58;5.50;;;18.10;67.50;;;;;;10517491;28;20048;-24
2023/03/03 19:23:04;;;;;;;23.88;4.63;;;18.60;65.10;;;;;;10508856;28;20084;-24
2023/03/03 19:28:30;;;;;;;15.65;4.20;;;18.60;65.10;;;;;;10516240;28;20390;-23
2023/03/03 19:33:53;;;;;;;15.13;3.38;;;18.70;64.50;;;;;;10512096;28;20044;-26
2023/03/03 19:39:14;;;;;;;14.43;3.50;;;18.40;67.00;;;;;;10528868;28;20047;-23
2023/03/03 19:44:32;;;;;;;16.98;3.55;;;18.30;67.60;;;;;;10511321;28;20127;-24
2023/03/03 19:49:54;;;;;;;11.52;2.88;;;17.00;61.30;;;;;;10509815;28;20041;-24
2023/03/03 19:55:02;;;;;;;;;;;17.80;65.70;;;;;;10510739;28;20044;-23
2023/03/03 20:00:09;;;;;;;13.88;2.67;;;18.20;69.50;;;;;;10515503;28;19920;-24
2023/03/03 20:05:20;;;;;;;13.98;2.83;;;18.50;66.90;;;;;;10513777;28;20128;-24
2023/03/03 20:10:37;;;;;;;10.70;3.25;;;18.10;64.30;;;;;;10512591;28;20046;-25
2023/03/03 20:15:48;;;;;;;17.35;3.67;;;18.40;66.60;;;;;;10522434;28;20464;-26
2023/03/03 20:21:06;;;;;;;16.92;5.25;;;18.00;62.80;;;;;;10514438;28;20052;-24
2023/03/03 20:26:16;;;;;;;19.15;6.88;;;18.70;64.90;;;;;;10528240;28;20532;-23
2023/03/03 20:31:27;;;;;;;23.60;8.95;;;18.30;66.40;;;;;;10523861;28;20399;-23
2023/03/03 20:36:40;;;;;;;21.50;9.10;;;18.50;65.00;;;;;;10528780;28;20142;-24
2023/03/03 20:41:54;;;;;;;29.00;11.00;;;18.30;61.80;;;;;;10521678;28;20705;-24
2023/03/03 20:47:04;;;;;;;24.33;12.90;;;17.80;57.90;;;;;;10526953;28;20145;-23
2023/03/03 20:52:12;;;;;;;34.55;16.60;;;18.30;60.90;;;;;;10523153;28;20094;-24
2023/03/03 20:57:22;;;;;;;32.75;16.80;;;18.40;64.30;;;;;;10533274;28;20197;-24
2023/03/03 21:02:30;;;;;;;27.17;15.90;;;18.30;64.60;;;;;;10531575;28;20048;-23
2023/03/03 21:07:35;;;;;;;18.40;7.00;;;18.60;62.50;;;;;;10525198;28;20460;-22
2023/03/03 21:12:37;;;;;;;17.42;6.38;;;18.70;62.30;;;;;;10518371;28;20109;-25
2023/03/03 21:17:40;;;;;;;13.98;7.00;;;18.30;64.30;;;;;;10524325;28;20098;-24
2023/03/03 21:22:44;;;;;;;17.73;7.72;;;18.70;62.30;;;;;;10518390;28;20106;-24
2023/03/03 21:27:46;;;;;;;16.70;8.70;;;18.40;63.20;;;;;;10520089;28;20142;-24
2023/03/03 21:32:50;;;;;;;17.75;8.40;;;18.60;62.10;;;;;;10531653;28;20043;-25
2023/03/03 21:37:55;;;;;;;17.80;8.02;;;18.70;61.50;;;;;;10529287;28;20083;-24
2023/03/03 21:42:59;;;;;;;41.03;21.45;;;18.80;61.40;;;;;;10520724;28;20509;-24
2023/03/03 21:48:04;;;;;;;32.40;14.18;;;18.00;64.60;;;;;;10525713;28;20048;-24
2023/03/03 21:53:07;;;;;;;53.58;29.83;;;16.60;68.10;;;;;;10517955;28;20484;-24
2023/03/03 21:58:09;;;;;;;50.80;24.70;;;16.90;71.30;;;;;;10518303;28;20109;-23
2023/03/03 22:03:11;;;;;;;54.07;30.17;;;16.50;68.90;;;;;;10523005;28;20082;-23
2023/03/03 22:08:14;;;;;;;42.83;21.43;;;15.90;78.90;;;;;;10527061;28;20502;-21
2023/03/03 22:13:18;;;;;;;52.63;26.92;;;16.40;68.60;;;;;;10535705;28;20048;-23
2023/03/03 22:18:20;;;;;;;51.13;26.70;;;16.60;72.90;;;;;;10525486;28;20046;-23
2023/03/03 22:23:24;;;;;;;41.58;21.50;;;17.40;67.40;;;;;;10515651;28;20536;-23
2023/03/03 22:28:27;;;;;;;43.55;22.00;;;17.50;61.10;;;;;;10534043;28;20401;-23
2023/03/03 22:33:29;;;;;;;43.15;23.50;;;17.20;63.70;;;;;;10524641;28;20040;-23
2023/03/03 22:38:32;;;;;;;47.78;23.50;;;17.40;65.80;;;;;;10527851;28;20040;-23
2023/03/03 22:43:34;;;;;;;39.63;22.50;;;18.00;63.80;;;;;;10518685;28;20139;-23
2023/03/03 22:48:37;;;;;;;38.65;21.23;;;18.20;62.80;;;;;;10501945;28;20067;-24
2023/03/03 22:53:40;;;;;;;32.88;18.98;;;18.00;63.60;;;;;;10512611;28;20572;-25
2023/03/03 22:58:42;;;;;;;37.28;21.67;;;18.20;62.30;;;;;;10520708;28;20075;-24
2023/03/03 23:03:44;;;;;;;23.23;14.18;;;17.70;64.60;;;;;;10519913;28;20056;-24
2023/03/03 23:08:47;;;;;;;31.38;17.92;;;17.70;62.40;;;;;;10520235;28;20087;-23
2023/03/03 23:13:49;;;;;;;36.53;20.80;;;17.60;65.40;;;;;;10518654;28;20103;-27
2023/03/03 23:18:51;;;;;;;39.17;21.88;;;17.90;63.80;;;;;;10514236;28;20129;-24
2023/03/03 23:23:54;;;;;;;39.70;23.47;;;18.00;63.50;;;;;;10511454;28;20093;-26
2023/03/03 23:28:56;;;;;;;37.97;20.42;;;18.00;63.00;;;;;;10511089;28;20482;-24
2023/03/03 23:33:58;;;;;;;26.52;15.23;;;17.90;63.30;;;;;;10522917;28;20095;-26
2023/03/03 23:39:01;;;;;;;41.40;23.37;;;17.40;62.80;;;;;;10519788;28;20701;-23
2023/03/03 23:44:03;;;;;;;30.42;18.52;;;17.40;61.20;;;;;;10520505;28;20528;-23
2023/03/03 23:49:05;;;;;;;28.05;17.30;;;17.00;68.80;;;;;;10517011;28;20102;-24
2023/03/03 23:54:08;;;;;;;36.70;21.13;;;17.40;66.00;;;;;;10526885;28;20460;-22
2023/03/03 23:59:10;;;;;;;36.35;23.48;;;16.40;70.70;;;;;;10538261;28;20611;-24
